Time;durP1;ratioP1;P1;durP2;ratioP2;P2;SDS_P1;SDS_P2;PMS_P1;PMS_P2;Temp;Humidity;BMP_temperature;BMP_pressure;BME280_temperature;BME280_humidity;BME280_pressure;Samples;Min_cycle;Max_cycle;Signal;HPM_P1;HPM_P2
2020/12/17 00:00:28;;;;;;;37.63;21.08;;;8.00;99.90;;;;;;5035374;28;20039;-77
2020/12/17 00:02:56;;;;;;;34.05;19.92;;;8.00;99.90;;;;;;5022773;28;20095;-77
2020/12/17 00:05:22;;;;;;;35.40;20.55;;;8.00;99.90;;;;;;5043052;28;20073;-77
2020/12/17 00:07:53;;;;;;;36.95;19.98;;;7.90;99.90;;;;;;5036999;28;20020;-77
2020/12/17 00:10:21;;;;;;;36.75;20.75;;;8.00;99.90;;;;;;5039036;28;20269;-77
2020/12/17 00:12:47;;;;;;;53.78;23.95;;;7.90;99.90;;;;;;5019411;28;20409;-77
2020/12/17 00:15:17;;;;;;;44.85;21.90;;;7.90;99.90;;;;;;5050518;28;20121;-77
2020/12/17 00:17:51;;;;;;;51.10;21.33;;;7.90;99.90;;;;;;4692162;28;10000181;-77
2020/12/17 00:20:19;;;;;;;37.58;20.77;;;7.90;99.90;;;;;;4695069;28;9999974;-78
2020/12/17 00:22:48;;;;;;;110.70;25.23;;;7.80;99.90;;;;;;5036319;28;20021;-77
2020/12/17 00:25:18;;;;;;;53.67;21.95;;;7.80;99.90;;;;;;5040705;28;20033;-78
2020/12/17 00:27:46;;;;;;;27.35;19.08;;;7.80;99.90;;;;;;5025405;28;20032;-78
2020/12/17 00:30:17;;;;;;;105.88;24.50;;;7.80;99.90;;;;;;5026662;28;20115;-77
2020/12/17 00:32:47;;;;;;;77.57;21.15;;;7.80;99.90;;;;;;5041568;28;20028;-77
2020/12/17 00:35:13;;;;;;;169.05;25.85;;;7.70;99.90;;;;;;5042047;28;20100;-77
2020/12/17 00:37:41;;;;;;;130.40;23.83;;;7.70;99.90;;;;;;5038557;28;20033;-78
2020/12/17 00:40:14;;;;;;;122.13;22.80;;;7.70;99.90;;;;;;5022093;28;20033;-78
2020/12/17 00:42:44;;;;;;;65.35;21.63;;;7.70;99.90;;;;;;5039329;28;20033;-78
2020/12/17 00:45:12;;;;;;;164.95;23.20;;;7.70;99.90;;;;;;5039620;28;20108;-78
2020/12/17 00:47:38;;;;;;;73.10;20.60;;;7.70;99.90;;;;;;5040972;28;20025;-77
2020/12/17 00:50:07;;;;;;;75.22;20.98;;;7.70;99.90;;;;;;5038540;28;20133;-78
2020/12/17 00:52:37;;;;;;;39.85;20.70;;;7.70;99.90;;;;;;5055730;28;20037;-79
2020/12/17 00:55:05;;;;;;;93.70;23.90;;;7.70;99.90;;;;;;5039972;28;20029;-77
2020/12/17 00:57:31;;;;;;;57.45;22.77;;;7.70;99.90;;;;;;5034983;28;20428;-77
2020/12/17 00:59:56;;;;;;;98.28;24.13;;;7.60;99.90;;;;;;5020791;28;20036;-77
2020/12/17 01:02:24;;;;;;;87.65;22.25;;;7.60;99.90;;;;;;5039680;28;20731;-77
2020/12/17 01:04:50;;;;;;;55.33;21.95;;;7.50;99.90;;;;;;5036342;28;20025;-77
2020/12/17 01:07:19;;;;;;;121.43;24.55;;;7.50;99.90;;;;;;5040057;28;20036;-77
2020/12/17 01:09:45;;;;;;;57.17;19.63;;;7.50;99.90;;;;;;5039709;28;20053;-77
2020/12/17 01:12:13;;;;;;;25.35;16.48;;;7.50;99.90;;;;;;5040241;28;20123;-77
2020/12/17 01:14:41;;;;;;;65.20;19.90;;;7.60;99.90;;;;;;5034679;28;20047;-77
2020/12/17 01:17:07;;;;;;;51.28;18.92;;;7.50;99.90;;;;;;5040457;28;20037;-77
2020/12/17 01:19:35;;;;;;;97.95;19.58;;;7.50;99.90;;;;;;5040653;28;20044;-77
2020/12/17 01:22:07;;;;;;;43.88;18.52;;;7.50;99.90;;;;;;5035518;28;20455;-77
2020/12/17 01:24:33;;;;;;;26.10;16.77;;;7.50;99.90;;;;;;5043575;28;20379;-77
2020/12/17 01:27:01;;;;;;;26.65;18.77;;;7.50;99.90;;;;;;5044158;28;20033;-77
2020/12/17 01:29:27;;;;;;;24.42;17.30;;;7.50;99.90;;;;;;5044562;28;20029;-77
2020/12/17 01:31:57;;;;;;;25.10;17.67;;;7.50;99.90;;;;;;5043513;28;20036;-78
2020/12/17 01:34:25;;;;;;;24.90;16.85;;;7.50;99.90;;;;;;5045135;28;20098;-77
2020/12/17 01:37:01;;;;;;;24.17;16.75;;;7.40;99.90;;;;;;5044869;28;20619;-78
2020/12/17 01:39:29;;;;;;;27.15;17.83;;;7.40;99.90;;;;;;5039876;28;20071;-77
2020/12/17 01:41:55;;;;;;;30.38;20.30;;;7.40;99.90;;;;;;5044011;28;20024;-77
2020/12/17 01:44:23;;;;;;;29.15;18.25;;;7.40;99.90;;;;;;5037806;28;20087;-77
2020/12/17 01:46:51;;;;;;;30.10;17.98;;;7.40;99.90;;;;;;5038497;28;20028;-77
2020/12/17 01:49:21;;;;;;;25.15;17.88;;;7.40;99.90;;;;;;5043196;28;20091;-77
2020/12/17 01:51:48;;;;;;;28.10;18.85;;;7.30;99.90;;;;;;5038556;28;20174;-77
2020/12/17 01:54:19;;;;;;;26.25;17.00;;;7.30;99.90;;;;;;5042908;28;20039;-77
2020/12/17 01:56:47;;;;;;;26.45;17.20;;;7.30;99.90;;;;;;5043034;28;20052;-77
2020/12/17 01:59:22;;;;;;;32.08;21.17;;;7.30;99.90;;;;;;5027605;28;20124;-77
2020/12/17 02:01:48;;;;;;;29.50;19.45;;;7.20;99.90;;;;;;5037916;28;20646;-77
2020/12/17 02:04:20;;;;;;;33.92;21.40;;;7.20;99.90;;;;;;5042596;28;20020;-77
2020/12/17 02:06:48;;;;;;;30.00;19.77;;;7.30;99.90;;;;;;5060046;28;20124;-77
2020/12/17 02:09:17;;;;;;;38.28;22.27;;;7.30;99.90;;;;;;5043749;28;20025;-77
2020/12/17 02:11:53;;;;;;;32.10;19.55;;;7.30;99.90;;;;;;5043026;28;20509;-77
2020/12/17 02:14:19;;;;;;;28.00;19.17;;;7.30;99.90;;;;;;5038203;28;20103;-77
2020/12/17 02:16:45;;;;;;;31.90;20.98;;;7.30;99.90;;;;;;5044070;28;20025;-77
2020/12/17 02:19:11;;;;;;;25.85;17.52;;;7.30;99.90;;;;;;5042326;28;20036;-77
2020/12/17 02:21:36;;;;;;;54.50;20.45;;;7.30;99.90;;;;;;5043682;28;20051;-77
2020/12/17 02:24:02;;;;;;;37.97;20.05;;;7.30;99.90;;;;;;5042209;28;20504;-77
2020/12/17 02:26:30;;;;;;;22.17;16.38;;;7.30;99.90;;;;;;5041772;28;20048;-77
2020/12/17 02:28:56;;;;;;;42.65;23.92;;;7.40;99.90;;;;;;5042848;28;20021;-77
2020/12/17 02:31:27;;;;;;;49.10;21.35;;;7.30;99.90;;;;;;5038336;28;20064;-77
2020/12/17 02:33:55;;;;;;;31.77;18.88;;;7.30;99.90;;;;;;5040133;28;20489;-77
2020/12/17 02:36:20;;;;;;;89.15;22.42;;;7.30;99.90;;;;;;5042780;28;20025;-77
2020/12/17 02:38:46;;;;;;;26.92;17.55;;;7.30;99.90;;;;;;5039806;28;20918;-77
2020/12/17 02:41:12;;;;;;;40.88;20.27;;;7.30;99.90;;;;;;5040346;28;20075;-77
2020/12/17 02:43:41;;;;;;;27.23;18.95;;;7.30;99.90;;;;;;5043017;28;20021;-77
2020/12/17 02:46:12;;;;;;;24.25;17.30;;;7.30;99.90;;;;;;5073736;28;20025;-77
2020/12/17 02:48:37;;;;;;;28.20;19.38;;;7.40;99.90;;;;;;5042945;28;20044;-78
2020/12/17 02:51:05;;;;;;;31.17;21.55;;;7.40;99.90;;;;;;5042004;28;20037;-77
2020/12/17 02:53:33;;;;;;;25.88;18.17;;;7.40;99.90;;;;;;5036125;28;20044;-78
2020/12/17 02:55:58;;;;;;;30.45;20.48;;;7.30;99.90;;;;;;5042615;28;20032;-77
2020/12/17 02:58:26;;;;;;;33.00;21.25;;;7.40;99.90;;;;;;5063320;28;20711;-77
2020/12/17 03:00:56;;;;;;;33.85;22.35;;;7.40;99.90;;;;;;5041859;28;20037;-76
2020/12/17 03:03:29;;;;;;;26.48;18.60;;;7.40;99.90;;;;;;5042277;28;20033;-77
2020/12/17 03:05:57;;;;;;;31.00;21.13;;;7.40;99.90;;;;;;5040906;28;20032;-77
2020/12/17 03:08:25;;;;;;;29.73;20.13;;;7.40;99.90;;;;;;5040002;28;20043;-77
2020/12/17 03:10:54;;;;;;;29.88;20.40;;;7.40;99.90;;;;;;5037548;28;20025;-77
2020/12/17 03:13:21;;;;;;;32.92;21.90;;;7.40;99.90;;;;;;5025068;28;20033;-77
2020/12/17 03:15:46;;;;;;;31.23;20.92;;;7.40;99.90;;;;;;5042149;28;20036;-77
2020/12/17 03:18:12;;;;;;;28.80;19.88;;;7.50;99.90;;;;;;5020558;28;20025;-78
2020/12/17 03:20:42;;;;;;;25.33;18.27;;;7.50;99.90;;;;;;5057827;28;20033;-77
2020/12/17 03:23:13;;;;;;;36.17;23.42;;;7.50;99.90;;;;;;5037706;28;20040;-78
2020/12/17 03:25:41;;;;;;;28.30;19.48;;;7.50;99.90;;;;;;5041502;28;20031;-77
2020/12/17 03:28:06;;;;;;;45.15;27.33;;;7.50;99.90;;;;;;5046538;28;20065;-78
2020/12/17 03:30:34;;;;;;;38.45;23.60;;;7.50;99.90;;;;;;5038160;28;20634;-77
2020/12/17 03:33:00;;;;;;;39.40;23.52;;;7.60;99.90;;;;;;5037972;28;20133;-77
2020/12/17 03:35:28;;;;;;;35.10;22.35;;;7.60;99.90;;;;;;5041040;28;20033;-77
2020/12/17 03:37:57;;;;;;;32.90;21.90;;;7.60;99.90;;;;;;5041570;28;20159;-77
2020/12/17 03:40:28;;;;;;;28.02;19.35;;;7.60;99.90;;;;;;5041635;28;20082;-77
2020/12/17 03:43:01;;;;;;;29.35;19.35;;;7.60;99.90;;;;;;5057305;28;20119;-77
2020/12/17 03:45:27;;;;;;;36.50;24.30;;;7.60;99.90;;;;;;5041014;28;20040;-77
2020/12/17 03:47:52;;;;;;;35.50;24.08;;;7.60;99.90;;;;;;5036504;28;20025;-77
2020/12/17 03:50:18;;;;;;;35.10;21.77;;;7.60;99.90;;;;;;5041095;28;20359;-77
2020/12/17 03:52:43;;;;;;;29.70;19.02;;;7.60;99.90;;;;;;5041575;28;21983;-77
2020/12/17 03:55:09;;;;;;;30.92;20.15;;;7.60;99.90;;;;;;5037810;28;20025;-77
2020/12/17 03:57:37;;;;;;;33.70;22.95;;;7.70;99.90;;;;;;5041814;28;20117;-77
2020/12/17 04:00:06;;;;;;;31.17;21.17;;;7.60;99.90;;;;;;5041463;28;20036;-77
2020/12/17 04:02:35;;;;;;;38.03;23.73;;;7.60;99.90;;;;;;5037049;28;20049;-77
2020/12/17 04:05:00;;;;;;;29.65;18.80;;;7.60;99.90;;;;;;5036110;28;20036;-78
2020/12/17 04:07:26;;;;;;;28.98;19.83;;;7.60;99.90;;;;;;5061348;28;20033;-77
2020/12/17 04:09:52;;;;;;;36.28;23.17;;;7.70;99.90;;;;;;5041538;28;20104;-78
2020/12/17 04:12:20;;;;;;;32.72;22.25;;;7.70;99.90;;;;;;5041238;28;20037;-78
2020/12/17 04:14:48;;;;;;;36.30;24.40;;;7.70;99.90;;;;;;5039231;28;20031;-77
2020/12/17 04:17:16;;;;;;;30.10;20.40;;;7.70;99.90;;;;;;5040192;28;20037;-78
2020/12/17 04:19:47;;;;;;;43.33;25.33;;;7.70;99.90;;;;;;5041282;28;20375;-77
2020/12/17 04:22:19;;;;;;;38.42;22.92;;;7.70;99.90;;;;;;5041039;28;20029;-77
2020/12/17 04:24:45;;;;;;;51.03;22.73;;;7.70;99.90;;;;;;5036639;28;20029;-78
2020/12/17 04:27:11;;;;;;;40.63;23.92;;;7.70;99.90;;;;;;5041064;28;20056;-77
2020/12/17 04:29:39;;;;;;;77.00;24.70;;;7.70;99.90;;;;;;5039569;28;20104;-77
2020/12/17 04:32:07;;;;;;;52.55;19.95;;;7.70;99.90;;;;;;5036957;28;20025;-77
2020/12/17 04:34:35;;;;;;;34.88;22.40;;;7.70;99.90;;;;;;5035518;28;20494;-78
2020/12/17 04:37:01;;;;;;;188.35;27.10;;;7.70;99.90;;;;;;5040721;28;20462;-78
2020/12/17 04:39:29;;;;;;;43.88;25.25;;;7.70;99.90;;;;;;5039663;28;20048;-77
2020/12/17 04:41:57;;;;;;;39.28;20.50;;;7.70;99.90;;;;;;5037405;28;20032;-77
2020/12/17 04:44:27;;;;;;;34.92;21.00;;;7.70;99.90;;;;;;5043186;28;20025;-77
2020/12/17 04:47:05;;;;;;;35.30;22.67;;;7.70;99.90;;;;;;5039399;28;20041;-78
2020/12/17 04:49:38;;;;;;;41.35;23.20;;;7.70;99.90;;;;;;5040358;28;20116;-77
2020/12/17 04:52:05;;;;;;;34.22;23.25;;;7.70;99.90;;;;;;5040381;28;20115;-77
2020/12/17 04:54:33;;;;;;;31.45;20.77;;;7.70;99.90;;;;;;5034310;28;20044;-77
2020/12/17 04:57:10;;;;;;;76.80;22.05;;;7.80;99.90;;;;;;5059789;28;20064;-77
2020/12/17 04:59:46;;;;;;;43.70;19.08;;;7.80;99.90;;;;;;5040196;28;20566;-78
2020/12/17 05:02:13;;;;;;;64.90;24.08;;;7.80;99.90;;;;;;5072183;28;20148;-77
2020/12/17 05:04:45;;;;;;;52.65;30.67;;;7.80;99.90;;;;;;5045348;28;20225;-77
2020/12/17 05:07:14;;;;;;;41.60;27.42;;;7.70;99.90;;;;;;5039420;28;20366;-77
2020/12/17 05:09:43;;;;;;;36.85;25.30;;;7.60;99.90;;;;;;5036202;28;20067;-77
2020/12/17 05:12:11;;;;;;;43.80;27.92;;;7.70;99.90;;;;;;5035992;28;20032;-77
2020/12/17 05:14:42;;;;;;;40.53;26.58;;;7.70;99.90;;;;;;5034908;28;21083;-77
2020/12/17 05:17:07;;;;;;;43.45;28.35;;;7.70;99.90;;;;;;5038585;28;20040;-77
2020/12/17 05:19:34;;;;;;;42.47;27.50;;;7.70;99.90;;;;;;5038182;28;21765;-77
2020/12/17 05:22:03;;;;;;;37.15;25.70;;;7.70;99.90;;;;;;5035750;28;20112;-77
2020/12/17 05:24:29;;;;;;;47.92;28.05;;;7.80;99.90;;;;;;5039584;28;20040;-77
2020/12/17 05:26:58;;;;;;;42.65;26.05;;;7.70;99.90;;;;;;5036648;28;20025;-77
2020/12/17 05:29:26;;;;;;;38.50;22.67;;;7.70;99.90;;;;;;5055447;28;20116;-77
2020/12/17 05:31:55;;;;;;;40.80;24.75;;;7.70;99.90;;;;;;5038377;28;20037;-77
2020/12/17 05:34:23;;;;;;;33.00;21.27;;;7.60;99.90;;;;;;5035473;28;20029;-77
2020/12/17 05:36:51;;;;;;;37.38;22.30;;;7.70;99.90;;;;;;5035024;28;20486;-77
2020/12/17 05:39:21;;;;;;;34.67;22.08;;;7.70;99.90;;;;;;5038670;28;20040;-76
2020/12/17 05:41:53;;;;;;;35.17;22.00;;;7.60;99.90;;;;;;5040929;28;20362;-77
2020/12/17 05:44:27;;;;;;;34.00;21.63;;;7.60;99.90;;;;;;5023735;28;20032;-77
2020/12/17 05:46:52;;;;;;;36.53;20.75;;;7.50;99.90;;;;;;5036010;28;20044;-77
2020/12/17 05:49:21;;;;;;;39.92;22.70;;;7.50;99.90;;;;;;5019438;28;20025;-78
2020/12/17 05:51:48;;;;;;;32.25;20.83;;;7.50;99.90;;;;;;5033065;28;20485;-78
2020/12/17 05:54:26;;;;;;;41.42;23.67;;;7.50;99.90;;;;;;5038263;28;20924;-77
2020/12/17 05:57:13;;;;;;;44.20;26.42;;;7.50;99.90;;;;;;5019018;28;20044;-77
2020/12/17 05:59:42;;;;;;;33.50;20.45;;;7.50;99.90;;;;;;5039905;28;20039;-77
2020/12/17 06:02:27;;;;;;;34.83;22.33;;;7.50;99.90;;;;;;5038185;28;20045;-77
2020/12/17 06:05:12;;;;;;;31.48;20.17;;;7.50;99.90;;;;;;5040554;28;20135;-77
2020/12/17 06:07:45;;;;;;;39.65;23.73;;;7.50;99.90;;;;;;5038286;28;20124;-78
2020/12/17 06:10:16;;;;;;;32.85;21.00;;;7.50;99.90;;;;;;5041949;28;20059;-77
2020/12/17 06:12:46;;;;;;;31.85;20.27;;;7.40;99.90;;;;;;5042689;28;20032;-77
2020/12/17 06:15:15;;;;;;;34.72;20.83;;;7.40;99.90;;;;;;5042049;28;20139;-77
2020/12/17 06:17:47;;;;;;;42.22;24.40;;;7.40;99.90;;;;;;5037817;28;20033;-77
2020/12/17 06:20:16;;;;;;;34.30;22.10;;;7.40;99.90;;;;;;5042911;28;20044;-77
2020/12/17 06:22:42;;;;;;;50.90;28.95;;;7.40;99.90;;;;;;5043312;28;20071;-78
2020/12/17 06:25:11;;;;;;;45.33;29.05;;;7.40;99.90;;;;;;5038848;28;20040;-78
2020/12/17 06:27:37;;;;;;;41.63;26.35;;;7.40;99.90;;;;;;5038545;28;20624;-78
2020/12/17 06:30:08;;;;;;;45.20;26.48;;;7.40;99.90;;;;;;5038495;28;20029;-78
2020/12/17 06:32:37;;;;;;;35.75;23.88;;;7.40;99.90;;;;;;5042260;28;20040;-78
2020/12/17 06:35:06;;;;;;;47.47;29.00;;;7.40;99.90;;;;;;5042274;28;20136;-77
2020/12/17 06:37:32;;;;;;;44.70;29.13;;;7.40;99.90;;;;;;5047176;28;20029;-77
2020/12/17 06:39:59;;;;;;;44.92;28.02;;;7.40;99.90;;;;;;5042456;28;20047;-77
2020/12/17 06:42:35;;;;;;;45.35;28.80;;;7.40;99.90;;;;;;5040988;28;20592;-77
2020/12/17 06:45:01;;;;;;;38.60;25.23;;;7.40;99.90;;;;;;5037778;28;20033;-77
2020/12/17 06:47:30;;;;;;;52.53;29.02;;;7.40;99.90;;;;;;5038058;28;20031;-77
2020/12/17 06:50:35;;;;;;;45.35;27.55;;;7.40;99.90;;;;;;5032960;28;20044;-77
2020/12/17 06:53:08;;;;;;;41.92;27.25;;;7.40;99.90;;;;;;5003274;28;20148;-77
2020/12/17 06:55:46;;;;;;;45.10;26.55;;;7.40;99.90;;;;;;5035468;28;20108;-77
2020/12/17 06:58:23;;;;;;;39.00;24.40;;;7.50;99.90;;;;;;5042940;28;20035;-78
2020/12/17 07:00:51;;;;;;;47.95;26.92;;;7.50;99.90;;;;;;5043330;28;20021;-77
2020/12/17 07:03:48;;;;;;;58.92;32.22;;;7.50;99.90;;;;;;5041992;28;20164;-78
2020/12/17 07:06:23;;;;;;;55.28;29.15;;;7.40;99.90;;;;;;5041948;28;20016;-77
2020/12/17 07:08:55;;;;;;;52.28;30.30;;;7.30;99.90;;;;;;5022662;28;20547;-77
2020/12/17 07:11:33;;;;;;;;;;;7.30;99.90;;;;;;5042081;28;20041;-77
2020/12/17 07:14:04;;;;;;;40.60;24.60;;;7.30;99.90;;;;;;5042339;28;19985;-78
2020/12/17 07:16:33;;;;;;;42.65;25.23;;;7.30;99.90;;;;;;5044752;28;20120;-76
2020/12/17 07:19:25;;;;;;;49.83;28.35;;;7.30;99.90;;;;;;5039910;28;20480;-78
2020/12/17 07:21:52;;;;;;;42.35;25.85;;;7.30;99.90;;;;;;5044149;28;20029;-77
2020/12/17 07:24:45;;;;;;;43.45;24.90;;;7.40;99.90;;;;;;5044734;28;20029;-77
2020/12/17 07:27:14;;;;;;;50.35;27.33;;;7.40;99.90;;;;;;5043408;28;20021;-77
2020/12/17 07:29:46;;;;;;;39.70;23.15;;;7.30;99.90;;;;;;5041769;28;20554;-77
2020/12/17 07:32:24;;;;;;;38.72;23.45;;;7.30;99.90;;;;;;5074316;28;20045;-78
2020/12/17 07:34:55;;;;;;;40.50;24.00;;;7.40;99.90;;;;;;5043668;28;20028;-77
2020/12/17 07:37:36;;;;;;;51.63;26.52;;;7.30;99.90;;;;;;5041922;28;20517;-77
2020/12/17 07:40:13;;;;;;;50.28;28.77;;;7.20;99.90;;;;;;5045416;28;20033;-77
2020/12/17 07:42:42;;;;;;;42.88;23.48;;;7.20;99.90;;;;;;5040954;28;20036;-77
2020/12/17 07:45:10;;;;;;;38.85;23.52;;;7.20;99.90;;;;;;5042336;28;20464;-77
2020/12/17 07:47:35;;;;;;;38.05;22.98;;;7.10;99.90;;;;;;5019521;28;20056;-77
2020/12/17 07:50:04;;;;;;;38.88;22.27;;;7.10;99.90;;;;;;5043747;28;20055;-77
2020/12/17 07:52:32;;;;;;;32.45;20.58;;;7.10;99.90;;;;;;5043520;28;20060;-77
2020/12/17 07:54:59;;;;;;;39.15;23.80;;;7.10;99.90;;;;;;5040871;28;20028;-77
2020/12/17 07:57:25;;;;;;;47.42;27.83;;;7.10;99.90;;;;;;5043584;28;20048;-77
2020/12/17 07:59:51;;;;;;;37.53;22.20;;;7.10;99.90;;;;;;5046060;28;20139;-77
2020/12/17 08:02:16;;;;;;;33.10;19.98;;;7.10;99.90;;;;;;5044385;28;20128;-77
2020/12/17 08:04:57;;;;;;;37.38;23.92;;;7.10;99.90;;;;;;5047298;28;20402;-77
2020/12/17 08:07:25;;;;;;;61.20;29.05;;;7.10;99.90;;;;;;5045433;28;20033;-77
2020/12/17 08:10:00;;;;;;;45.78;26.65;;;7.10;99.90;;;;;;5045308;28;20036;-78
2020/12/17 08:12:28;;;;;;;44.72;26.73;;;7.10;99.90;;;;;;5039711;28;20730;-77
2020/12/17 08:15:11;;;;;;;46.67;28.80;;;7.10;99.90;;;;;;5045395;28;20054;-77
2020/12/17 08:17:36;;;;;;;41.38;25.33;;;7.10;99.90;;;;;;5045975;28;20166;-77
2020/12/17 08:20:07;;;;;;;44.65;27.77;;;7.10;99.90;;;;;;5042625;28;20088;-77
2020/12/17 08:22:35;;;;;;;40.60;25.17;;;7.20;99.90;;;;;;5045113;28;20033;-77
2020/12/17 08:25:07;;;;;;;46.38;27.65;;;7.20;99.90;;;;;;5039713;28;20055;-77
2020/12/17 08:27:35;;;;;;;33.77;22.17;;;7.20;99.90;;;;;;5041962;28;20086;-77
2020/12/17 08:30:01;;;;;;;37.03;24.20;;;7.30;99.90;;;;;;5042368;28;20533;-78
2020/12/17 08:32:27;;;;;;;40.08;26.45;;;7.30;99.90;;;;;;5078028;28;20028;-75
2020/12/17 08:35:01;;;;;;;48.42;29.20;;;7.30;99.90;;;;;;5044604;28;20083;-78
2020/12/17 08:37:27;;;;;;;42.75;26.67;;;7.30;99.90;;;;;;5077702;28;20039;-78
2020/12/17 08:39:58;;;;;;;44.63;28.13;;;7.30;99.90;;;;;;5041057;28;20123;-78
2020/12/17 08:42:24;;;;;;;42.20;28.00;;;7.20;99.90;;;;;;5056350;28;20033;-77
2020/12/17 08:44:50;;;;;;;47.33;30.00;;;7.20;99.90;;;;;;5041137;28;20040;-77
2020/12/17 08:47:16;;;;;;;39.63;27.15;;;7.20;99.90;;;;;;5040685;28;20051;-77
2020/12/17 08:49:42;;;;;;;40.50;26.88;;;7.20;99.90;;;;;;5054301;28;20565;-79
2020/12/17 08:52:13;;;;;;;44.00;29.17;;;7.20;99.90;;;;;;5059172;28;20086;-78
2020/12/17 08:54:41;;;;;;;32.13;21.13;;;7.10;99.90;;;;;;5027816;28;20041;-78
2020/12/17 08:57:10;;;;;;;41.08;27.73;;;7.10;99.90;;;;;;5042269;28;20119;-78
2020/12/17 08:59:39;;;;;;;40.95;28.50;;;7.10;99.90;;;;;;5039848;28;20035;-78
2020/12/17 09:02:04;;;;;;;38.50;26.67;;;7.10;99.90;;;;;;5044457;28;20045;-78
2020/12/17 09:04:35;;;;;;;37.15;25.80;;;7.10;99.90;;;;;;5039069;28;20034;-77
2020/12/17 09:07:06;;;;;;;40.53;28.42;;;7.20;99.90;;;;;;5060649;28;20071;-78
2020/12/17 09:09:34;;;;;;;38.90;26.20;;;7.10;99.90;;;;;;5038524;28;20021;-78
2020/12/17 09:12:01;;;;;;;38.53;27.58;;;7.10;99.90;;;;;;5046192;28;20083;-79
2020/12/17 09:14:32;;;;;;;36.35;25.50;;;7.10;99.90;;;;;;5024002;28;20025;-78
2020/12/17 09:17:11;;;;;;;42.78;28.77;;;7.10;99.90;;;;;;5043483;28;20028;-77
2020/12/17 09:19:37;;;;;;;39.70;27.45;;;7.10;99.90;;;;;;5040832;28;20523;-77
2020/12/17 09:22:06;;;;;;;36.85;26.67;;;7.10;99.90;;;;;;5043425;28;20032;-77
2020/12/17 09:24:33;;;;;;;37.03;26.40;;;7.10;99.90;;;;;;5023671;28;20029;-77
2020/12/17 09:27:31;;;;;;;36.67;25.33;;;7.20;99.90;;;;;;5027462;28;20116;-77
2020/12/17 09:30:17;;;;;;;36.35;27.05;;;7.20;99.90;;;;;;5045700;28;20227;-78
2020/12/17 09:33:01;;;;;;;36.35;26.23;;;7.20;99.90;;;;;;5046076;28;20025;-77
2020/12/17 09:35:40;;;;;;;32.17;22.85;;;7.20;99.90;;;;;;5043209;28;20029;-77
2020/12/17 09:38:09;;;;;;;36.58;26.33;;;7.20;99.90;;;;;;5044863;28;20783;-78
2020/12/17 09:40:40;;;;;;;31.92;23.70;;;7.30;99.90;;;;;;5045854;28;20025;-78
2020/12/17 09:43:08;;;;;;;37.47;25.92;;;7.20;99.90;;;;;;5040813;28;20409;-77
2020/12/17 09:45:47;;;;;;;35.42;24.70;;;7.30;99.90;;;;;;5049855;28;20025;-77
2020/12/17 09:48:21;;;;;;;32.70;24.00;;;7.30;99.90;;;;;;5049824;28;20048;-77
2020/12/17 09:50:57;;;;;;;32.20;23.90;;;7.30;99.90;;;;;;5050062;28;20029;-77
2020/12/17 09:53:25;;;;;;;33.78;23.75;;;7.30;99.90;;;;;;5049576;28;20025;-77
2020/12/17 09:55:51;;;;;;;30.90;22.27;;;7.40;99.90;;;;;;5029447;28;20502;-78
2020/12/17 09:58:17;;;;;;;34.22;24.13;;;7.40;99.90;;;;;;5046154;28;20043;-77
2020/12/17 10:00:43;;;;;;;32.60;23.58;;;7.40;99.90;;;;;;5044305;28;20059;-77
2020/12/17 10:03:12;;;;;;;33.03;23.92;;;7.50;99.90;;;;;;5043607;28;20052;-77
2020/12/17 10:05:41;;;;;;;34.47;23.90;;;7.50;99.90;;;;;;5048699;28;20110;-77
2020/12/17 10:08:14;;;;;;;31.38;22.25;;;7.50;99.90;;;;;;5049929;28;20059;-77
2020/12/17 10:10:45;;;;;;;30.30;22.55;;;7.60;99.90;;;;;;5047098;28;20039;-77
2020/12/17 10:13:13;;;;;;;32.10;23.80;;;7.60;99.90;;;;;;5027434;28;20029;-77
2020/12/17 10:15:40;;;;;;;31.80;23.25;;;7.60;99.90;;;;;;5050120;28;20025;-77
2020/12/17 10:18:08;;;;;;;27.40;21.42;;;7.70;99.90;;;;;;5048373;28;20048;-77
2020/12/17 10:20:36;;;;;;;38.05;25.13;;;7.70;99.90;;;;;;5043306;28;20041;-77
2020/12/17 10:23:02;;;;;;;34.03;24.10;;;7.60;99.90;;;;;;5041394;28;20393;-77
2020/12/17 10:25:30;;;;;;;30.80;23.40;;;7.60;99.90;;;;;;5043385;28;20017;-78
2020/12/17 10:27:59;;;;;;;31.23;23.38;;;7.60;99.90;;;;;;5045927;28;20454;-77
2020/12/17 10:30:28;;;;;;;30.52;23.40;;;7.70;99.90;;;;;;5030683;28;20912;-78
2020/12/17 10:32:57;;;;;;;32.10;24.13;;;7.70;99.90;;;;;;5045950;28;20021;-77
2020/12/17 10:35:24;;;;;;;31.00;22.33;;;7.70;99.90;;;;;;5043868;28;20040;-77
2020/12/17 10:37:50;;;;;;;33.45;24.13;;;7.70;99.90;;;;;;5047894;28;20066;-78
2020/12/17 10:40:23;;;;;;;32.15;23.70;;;7.70;99.90;;;;;;5047250;28;20140;-77
2020/12/17 10:42:48;;;;;;;37.25;24.80;;;7.70;99.90;;;;;;5042540;28;20086;-79
2020/12/17 10:45:17;;;;;;;32.78;23.38;;;7.70;99.90;;;;;;5043003;28;20526;-77
2020/12/17 10:47:45;;;;;;;29.25;22.42;;;7.70;99.90;;;;;;5049980;28;20033;-77
2020/12/17 10:50:13;;;;;;;36.20;27.45;;;7.70;99.90;;;;;;5080147;28;20040;-77
2020/12/17 10:52:40;;;;;;;41.00;29.50;;;7.80;99.90;;;;;;5046736;28;20621;-73
2020/12/17 10:55:06;;;;;;;35.65;25.20;;;7.80;99.90;;;;;;5046175;28;20025;-78
2020/12/17 10:57:32;;;;;;;37.83;24.77;;;7.80;99.90;;;;;;5047044;28;20036;-78
2020/12/17 11:00:00;;;;;;;35.05;24.77;;;7.80;99.90;;;;;;5047958;28;20879;-77
2020/12/17 11:02:31;;;;;;;34.85;24.77;;;7.80;99.90;;;;;;5049389;28;20037;-78
2020/12/17 11:05:00;;;;;;;35.63;25.50;;;7.80;99.90;;;;;;5047904;28;20450;-80
2020/12/17 11:07:27;;;;;;;32.38;22.63;;;7.80;99.90;;;;;;5044504;28;20457;-78
2020/12/17 11:09:53;;;;;;;32.63;23.17;;;7.90;99.90;;;;;;5046986;28;20100;-78
2020/12/17 11:12:21;;;;;;;34.85;23.17;;;7.90;99.90;;;;;;5047671;28;20556;-77
2020/12/17 11:14:47;;;;;;;32.38;23.05;;;7.90;99.90;;;;;;5044940;28;20063;-78
2020/12/17 11:17:13;;;;;;;28.95;21.13;;;8.00;99.90;;;;;;5048073;28;20024;-78
2020/12/17 11:19:39;;;;;;;27.90;20.80;;;8.00;99.90;;;;;;5042529;28;20109;-78
2020/12/17 11:22:04;;;;;;;30.13;21.00;;;8.10;99.90;;;;;;5047792;28;20087;-77
2020/12/17 11:24:32;;;;;;;29.70;21.15;;;8.10;99.90;;;;;;5047636;28;20374;-77
2020/12/17 11:27:00;;;;;;;27.02;19.02;;;8.10;99.90;;;;;;5041484;28;20021;-77
2020/12/17 11:29:31;;;;;;;25.48;19.20;;;8.20;99.90;;;;;;5044505;28;20122;-78
2020/12/17 11:31:56;;;;;;;23.38;17.85;;;8.20;99.90;;;;;;5046277;28;20040;-77
2020/12/17 11:34:22;;;;;;;28.85;20.25;;;8.20;99.90;;;;;;5044786;28;20033;-78
2020/12/17 11:36:50;;;;;;;26.73;19.80;;;8.30;99.90;;;;;;5042763;28;20510;-77
2020/12/17 11:39:18;;;;;;;26.45;19.27;;;8.30;99.90;;;;;;5044119;28;20036;-78
2020/12/17 11:41:47;;;;;;;31.92;21.08;;;8.30;99.90;;;;;;5047907;28;20521;-77
2020/12/17 11:44:16;;;;;;;33.30;23.35;;;8.30;99.90;;;;;;5042486;28;20036;-78
2020/12/17 11:46:42;;;;;;;30.95;22.40;;;8.40;99.90;;;;;;5047037;28;20021;-78
2020/12/17 11:49:11;;;;;;;31.05;22.33;;;8.40;99.90;;;;;;5047858;28;20017;-78
2020/12/17 11:51:38;;;;;;;31.40;22.30;;;8.40;99.90;;;;;;5044555;28;20305;-78
2020/12/17 11:54:09;;;;;;;27.80;19.15;;;8.40;99.90;;;;;;5045611;28;20083;-78
2020/12/17 11:56:35;;;;;;;25.90;18.77;;;8.40;99.90;;;;;;5042681;28;20446;-78
2020/12/17 11:59:02;;;;;;;21.35;16.52;;;8.40;99.90;;;;;;5041435;28;20036;-77
2020/12/17 12:01:31;;;;;;;29.40;20.42;;;8.50;99.90;;;;;;5044630;28;20489;-77
2020/12/17 12:03:59;;;;;;;27.13;19.08;;;8.50;99.90;;;;;;5027363;28;20112;-77
2020/12/17 12:06:29;;;;;;;27.10;19.60;;;8.50;99.90;;;;;;5047748;28;20028;-78
2020/12/17 12:09:00;;;;;;;28.15;19.88;;;8.50;99.90;;;;;;5044977;28;20094;-77
2020/12/17 12:11:28;;;;;;;24.63;17.35;;;8.50;99.90;;;;;;5063525;28;20061;-75
2020/12/17 12:13:54;;;;;;;25.58;19.55;;;8.50;99.90;;;;;;5047082;28;20100;-78
2020/12/17 12:16:22;;;;;;;23.83;16.92;;;8.50;99.90;;;;;;5040538;28;20108;-77
2020/12/17 12:18:48;;;;;;;31.40;19.92;;;8.50;99.90;;;;;;5047677;28;20033;-76
2020/12/17 12:21:17;;;;;;;25.35;18.10;;;8.50;99.90;;;;;;5046903;28;20051;-76
2020/12/17 12:23:45;;;;;;;22.42;14.98;;;8.50;99.90;;;;;;5044751;28;20398;-77
2020/12/17 12:26:13;;;;;;;20.00;15.45;;;8.50;99.90;;;;;;5028553;28;20021;-77
2020/12/17 12:28:39;;;;;;;29.25;18.88;;;8.50;99.90;;;;;;5043498;28;20031;-77
2020/12/17 12:31:08;;;;;;;14.23;10.43;;;8.60;99.90;;;;;;5047076;28;20020;-77
2020/12/17 12:33:33;;;;;;;14.60;9.45;;;8.50;99.90;;;;;;5030520;28;20099;-77
2020/12/17 12:35:59;;;;;;;13.07;9.43;;;8.60;99.90;;;;;;5044828;28;20021;-77
2020/12/17 12:38:27;;;;;;;13.18;8.98;;;8.60;99.90;;;;;;5046937;28;20035;-77
2020/12/17 12:40:55;;;;;;;12.40;8.32;;;8.70;99.90;;;;;;5046980;28;20074;-77
2020/12/17 12:43:25;;;;;;;11.48;8.13;;;8.70;99.90;;;;;;5047174;28;20033;-77
2020/12/17 12:45:54;;;;;;;10.35;7.85;;;8.70;99.90;;;;;;5045861;28;20055;-77
2020/12/17 12:48:24;;;;;;;14.02;8.00;;;8.70;99.90;;;;;;5043994;28;20100;-77